Latest Weather Observations for Liawenee

IDT60801

Issued at 4:35 am EST Friday 25 April 2014 (issued every 30 minutes, with the page automatically refreshed every 10 minutes)

About weather observations | Map of weather stations | Latest weather observations for TAS | Other Formats
Station Details ID: 096033 Name: LIAWENEE Lat: -41.90 Lon: 146.67 Height: 1057.0 m
Data from the previous 72 hours. | See also: Recent months at Liawenee
Date/Time
EST
Temp
°C
App
Temp
°C
Dew
Point
Rel
Hum
%
Delta-T
°C
Wind Press
QNH
hPa
Press
MSL
hPa
Rain
since 9 am
mm
Dir
 
Spd
km/h
Gust
km/h
Spd
kts
Gust
kts
25/04:30am -0.5 -4.4 -1.5 93 0.3 W 9 13 5 7 1017.5 - 1.0
25/04:00am -0.8 -5.5 -1.5 95 0.2 W 13 17 7 9 1017.3 - 1.0
25/03:30am -0.3 -4.6 -1.6 91 0.5 W 11 15 6 8 1017.1 - 1.0
25/03:00am -0.8 -5.9 -1.9 92 0.4 W 15 24 8 13 1017.1 1017.1 1.0
25/02:30am -0.2 -4.9 -1.8 89 0.6 WNW 13 17 7 9 1017.1 - 1.0
25/02:00am -0.5 -4.8 -1.9 90 0.5 WNW 11 17 6 9 1017.3 - 1.0
25/01:30am -0.8 -5.1 -1.9 92 0.4 WNW 11 15 6 8 1017.3 - 1.0
25/01:00am -0.8 -5.5 -2.1 91 0.4 W 13 17 7 9 1017.3 - 1.0
25/12:30am -0.7 -6.2 -2.1 90 0.5 W 17 22 9 12 1017.3 - 1.0
25/12:00am -0.6 -6.1 -2.2 89 0.6 W 17 20 9 11 1017.4 1017.4 1.0
 
Date/Time
EST
Temp
°C
App
Temp
°C
Dew
Point
Rel
Hum
%
Delta-T
°C
Wind Press
QNH
hPa
Press
MSL
hPa
Rain
since 9 am
mm
Dir
 
Spd
km/h
Gust
km/h
Spd
kts
Gust
kts
24/11:30pm -0.3 -6.3 -1.9 89 0.6 W 20 30 11 16 1017.3 - 1.0
24/11:00pm -2.0 -5.7 -2.7 95 0.2 NW 7 9 4 5 1017.5 - 1.0
24/10:30pm -1.6 -6.1 -2.9 91 0.4 W 11 20 6 11 1017.3 - 1.0
24/10:00pm -1.5 -6.3 -2.8 91 0.4 W 13 15 7 8 1017.2 - 1.0
24/09:30pm -1.1 -4.7 -2.4 91 0.4 W 7 13 4 7 1016.7 - 1.0
24/09:00pm -0.6 -4.2 -2.0 90 0.5 SW 7 13 4 7 1016.2 1016.2 1.0
24/08:30pm -1.0 -5.0 -2.1 92 0.4 WSW 9 15 5 8 1015.5 - 1.0
24/08:00pm -0.7 -6.6 -2.1 90 0.5 SW 19 24 10 13 1015.1 - 1.0
24/07:30pm 0.1 -5.7 -1.5 89 0.6 W 19 24 10 13 1014.6 - 1.0
24/07:00pm 0.2 -5.2 -1.5 88 0.6 SW 17 20 9 11 1014.4 - 1.0
24/06:30pm 0.2 -6.1 -0.9 92 0.4 WSW 22 32 12 17 1013.5 - 1.0
24/06:00pm 0.6 -5.4 -1.2 88 0.7 WSW 20 32 11 17 1012.7 1012.6 1.0
24/05:30pm 1.0 -5.8 -1.9 81 1.1 WSW 24 37 13 20 1011.7 - 1.0
24/05:09pm 0.8 -7.2 -2.2 80 1.2 WSW 30 48 16 26 1011.3 - 1.0
24/05:00pm 1.2 -8.2 -2.5 76 1.4 WSW 37 48 20 26 1010.9 - 1.0
24/04:30pm 2.1 -8.4 -2.4 72 1.7 WSW 43 63 23 34 1010.0 - 1.0
24/04:00pm 2.6 -6.5 -0.8 78 1.3 SW 37 52 20 28 1009.6 - 1.0
24/03:30pm 2.3 -6.7 -0.1 84 0.9 SW 37 50 20 27 1009.4 - 1.0
24/03:02pm 2.9 -6.6 -1.1 75 1.6 WSW 39 57 21 31 1009.0 - 1.0
24/03:00pm 2.8 -6.3 -0.6 78 1.3 WSW 37 52 20 28 1009.0 1008.8 1.0
24/02:30pm 2.1 -7.7 -0.2 85 0.9 WSW 41 54 22 29 1008.6 - 1.0
24/02:00pm 1.9 -7.9 -0.2 86 0.8 WSW 41 59 22 32 1008.4 - 1.0
24/01:31pm 2.4 -7.4 -0.2 83 1.0 WSW 41 59 22 32 1007.3 - 1.0
24/01:30pm 2.4 -7.4 -0.5 81 1.1 WSW 41 56 22 30 1007.3 - 1.0
24/01:01pm 2.6 -6.3 0.7 87 0.8 WSW 37 57 20 31 1006.9 - 0.8
24/01:00pm 2.8 -5.6 1.3 90 0.6 WSW 35 48 19 26 1006.9 - 0.8
24/12:38pm 1.1 -7.9 0.2 94 0.4 WSW 37 61 20 33 1006.9 - 0.8
24/12:30pm 0.6 -9.1 0.3 98 0.1 WSW 41 52 22 28 1007.0 - 0.8
24/12:00pm 1.5 -7.5 0.0 90 0.6 WSW 37 52 20 28 1007.1 1006.9 0.4
24/11:55am 2.3 -5.4 0.2 86 0.8 WSW 30 48 16 26 1007.0 - 0.4
24/11:30am 2.2 -4.5 1.3 94 0.4 WSW 26 37 14 20 1007.1 - 0.4
24/11:00am 1.0 -5.5 0.6 97 0.2 SW 24 33 13 18 1006.8 - 0.4
24/10:30am 0.8 -6.5 -0.1 94 0.4 WSW 28 39 15 21 1005.9 - 0.2
24/10:00am 3.5 -4.7 0.6 81 1.2 WSW 33 46 18 25 1004.9 - 0.0
24/09:30am 2.7 -5.4 1.1 89 0.7 WSW 33 50 18 27 1004.3 - 0.0
24/09:00am 2.2 -5.8 0.6 89 0.6 W 32 44 17 24 1003.8 1003.5 7.6
24/08:33am 2.1 -5.0 1.1 93 0.4 WSW 28 46 15 25 1003.2 - 7.6
24/08:30am 2.4 -5.1 1.5 94 0.4 WSW 30 46 16 25 1003.2 - 7.6
24/08:00am 2.3 -5.2 1.4 94 0.4 WSW 30 39 16 21 1002.8 - 7.6
24/07:30am 2.4 -4.6 1.7 95 0.3 WSW 28 39 15 21 1001.8 - 7.4
24/07:00am 2.5 -4.5 1.9 96 0.3 W 28 35 15 19 1000.9 - 7.2
24/06:30am 1.5 -1.4 1.2 98 0.1 W 6 17 3 9 1000.8 - 7.2
24/06:00am 1.5 -2.4 1.2 98 0.1 WSW 11 19 6 10 1000.9 1000.5 7.2
24/05:30am 1.5 -4.5 1.2 98 0.1 W 22 30 12 16 1001.3 - 7.0
24/05:00am 0.9 -6.0 0.3 96 0.2 W 26 43 14 23 1001.8 - 6.0
24/04:33am 3.5 -5.2 2.3 92 0.5 W 37 61 20 33 1001.3 - 3.0
24/04:30am 3.8 -5.2 2.5 91 0.6 W 39 61 21 33 1001.3 - 2.6
24/04:28am 4.0 -6.0 2.2 88 0.8 W 44 61 24 33 1001.3 - 2.2
24/04:00am 7.2 0.5 5.7 90 0.7 NW 30 50 16 27 1000.0 - 0.2
24/03:30am 7.2 0.9 5.8 91 0.7 NNW 28 50 15 27 1000.0 - 0.0
24/03:29am 7.0 0.7 5.6 91 0.7 NNW 28 48 15 26 1000.0 - 0.0
24/03:00am 6.8 0.8 5.3 90 0.7 NNW 26 48 14 26 1000.7 1000.3 0.0
24/02:30am 6.9 0.0 4.7 86 1.0 NW 30 56 16 30 1001.8 - 0.0
24/02:00am 6.5 -0.6 3.8 83 1.2 NW 30 52 16 28 1002.5 - 0.0
24/01:30am 6.3 -0.4 3.8 84 1.1 NW 28 46 15 25 1003.7 - 0.0
24/01:00am 6.0 -0.7 3.8 86 1.0 NNW 28 50 15 27 1004.2 - 0.0
24/12:51am 6.2 -0.4 4.4 88 0.8 NW 28 46 15 25 1004.5 - 0.0
24/12:30am 5.8 -0.1 4.1 89 0.8 NW 24 39 13 21 1004.9 - 0.0
24/12:09am 6.0 -0.8 3.2 82 1.2 NW 28 52 15 28 1005.4 - 0.0
24/12:00am 5.9 0.0 4.1 88 0.8 NNW 24 41 13 22 1005.5 1005.3 0.0
 
Date/Time
EST
Temp
°C
App
Temp
°C
Dew
Point
Rel
Hum
%
Delta-T
°C
Wind Press
QNH
hPa
Press
MSL
hPa
Rain
since 9 am
mm
Dir
 
Spd
km/h
Gust
km/h
Spd
kts
Gust
kts
23/11:30pm 5.9 0.8 3.9 87 0.9 NNW 20 39 11 21 1006.1 - 0.0
23/11:00pm 6.1 0.5 3.4 83 1.2 NNW 22 39 12 21 1006.8 - 0.0
23/10:30pm 6.2 0.7 3.9 85 1.0 NNW 22 37 12 20 1007.2 - 0.0
23/10:00pm 6.0 0.9 4.0 87 0.9 NW 20 35 11 19 1007.6 - 0.0
23/09:30pm 5.9 -0.8 3.7 86 1.0 NW 28 44 15 24 1007.8 - 0.0
23/09:00pm 5.9 -0.5 3.4 84 1.1 NW 26 44 14 24 1008.0 1007.8 0.0
23/08:30pm 5.8 0.6 3.3 84 1.1 NW 20 33 11 18 1008.2 - 0.0
23/08:00pm 5.7 1.0 2.9 82 1.2 NNW 17 32 9 17 1008.6 - 0.0
23/07:30pm 5.4 0.2 2.6 82 1.2 NW 19 32 10 17 1009.0 - 0.0
23/07:00pm 5.6 0.3 2.8 82 1.2 NW 20 35 11 19 1008.9 - 0.0
23/06:30pm 6.1 1.4 3.4 83 1.2 NW 17 32 9 17 1009.1 - 0.0
23/06:00pm 6.2 1.5 3.4 82 1.3 NW 17 28 9 15 1009.2 1009.0 0.0
23/05:30pm 6.6 2.0 3.6 81 1.4 NW 17 30 9 16 1009.3 - 0.0
23/05:00pm 6.8 2.8 3.1 77 1.7 WNW 13 28 7 15 1009.5 - 0.0
23/04:30pm 7.2 2.7 4.0 80 1.5 NW 17 32 9 17 1009.6 - 0.0
23/04:00pm 7.9 3.6 3.2 72 2.1 NW 15 30 8 16 1009.8 - 0.0
23/03:30pm 8.2 3.3 4.0 75 1.9 NW 19 28 10 15 1010.0 - 0.0
23/03:00pm 7.3 3.2 4.3 81 1.4 NNW 15 26 8 14 1010.4 1010.3 0.0
23/02:30pm 8.2 4.0 4.0 75 1.9 NW 15 24 8 13 1010.5 - 0.0
23/02:00pm 7.8 2.1 2.7 70 2.3 WNW 22 32 12 17 1010.9 - 0.0
23/01:30pm 8.1 1.1 1.9 65 2.7 WNW 28 39 15 21 1011.4 - 0.0
23/01:00pm 8.8 3.3 1.7 61 3.1 WNW 20 35 11 19 1011.6 - 0.0
23/12:40pm 8.1 0.6 1.0 61 3.1 WNW 30 48 16 26 1011.7 - 0.0
23/12:30pm 8.3 1.2 1.2 61 3.1 WNW 28 43 15 23 1011.9 - 0.0
23/12:00pm 9.6 4.0 1.3 56 3.7 WNW 20 32 11 17 1012.2 1012.1 0.0
23/11:30am 9.2 4.4 2.8 64 2.9 NW 17 28 9 15 1012.4 - 0.0
23/11:00am 9.1 4.0 0.8 56 3.6 WNW 17 39 9 21 1012.5 - 0.0
23/10:30am 8.8 3.6 0.3 55 3.6 NW 17 28 9 15 1013.0 - 0.0
23/10:00am 8.3 3.6 0.8 59 3.2 WNW 15 32 8 17 1013.4 - 0.0
23/09:30am 7.9 3.4 2.2 67 2.5 WNW 15 26 8 14 1013.5 - 0.0
23/09:00am 6.5 2.0 2.2 74 1.9 WNW 15 26 8 14 1013.7 1013.7 0.0
23/08:30am 5.5 0.2 2.0 78 1.5 WNW 19 28 10 15 1013.7 - 0.0
23/08:00am 4.2 1.1 1.1 80 1.3 W 7 15 4 8 1013.7 - 0.0
23/07:30am 3.2 -0.8 0.8 84 1.0 WSW 11 15 6 8 1013.5 - 0.0
23/07:00am 1.4 -1.1 -0.7 86 0.8 ENE 2 6 1 3 1013.6 - 0.0
23/06:30am 2.8 -2.0 0.4 84 1.0 W 15 20 8 11 1013.5 - 0.0
23/06:00am 4.2 -1.2 1.4 82 1.2 W 19 26 10 14 1013.7 1013.7 0.0
23/05:30am 4.0 0.5 1.5 84 1.0 WNW 9 13 5 7 1013.9 - 0.0
23/05:00am 3.6 0.4 1.0 83 1.1 WNW 7 9 4 5 1013.7 - 0.0
23/04:30am 3.7 0.1 0.9 82 1.2 NW 9 15 5 8 1013.5 - 0.0
23/04:00am 3.7 0.2 1.1 83 1.1 WNW 9 15 5 8 1013.5 - 0.0
23/03:30am 4.1 -0.5 1.3 82 1.2 WNW 15 22 8 12 1013.4 - 0.0
23/03:00am 4.3 -0.2 2.2 86 0.9 WNW 15 24 8 13 1013.3 1013.2 0.0
23/02:30am 3.1 -0.7 1.5 89 0.7 NNW 11 17 6 9 1013.4 - 0.0
23/02:00am 2.4 -1.1 1.1 91 0.5 NNW 9 17 5 9 1013.5 - 0.0
23/01:30am 3.1 -0.4 1.2 87 0.8 NW 9 15 5 8 1013.6 - 0.0
23/01:00am 3.1 -0.4 1.3 88 0.7 NW 9 15 5 8 1013.7 - 0.0
23/12:30am 2.1 -1.5 0.9 92 0.5 N 9 13 5 7 1013.9 - 0.0
23/12:00am 2.5 -2.6 0.6 87 0.8 W 17 20 9 11 1013.6 1013.6 0.0
 
Date/Time
EST
Temp
°C
App
Temp
°C
Dew
Point
Rel
Hum
%
Delta-T
°C
Wind Press
QNH
hPa
Press
MSL
hPa
Rain
since 9 am
mm
Dir
 
Spd
km/h
Gust
km/h
Spd
kts
Gust
kts
22/11:30pm 2.3 -1.7 0.4 87 0.8 WNW 11 13 6 7 1013.9 - 0.0
22/11:00pm 3.0 -0.9 0.9 86 0.9 WNW 11 19 6 10 1013.7 - 0.0
22/10:30pm 2.7 -1.2 1.1 89 0.7 NW 11 15 6 8 1013.7 - 0.0
22/10:00pm 3.1 -2.9 1.3 88 0.7 W 22 26 12 14 1013.4 - 0.0
22/09:30pm 3.6 -2.4 1.3 85 1.0 W 22 28 12 15 1013.5 - 0.0
22/09:00pm 3.5 -1.9 1.5 87 0.8 WNW 19 24 10 13 1013.1 1013.0 0.0
22/08:30pm 4.5 -0.7 2.7 88 0.8 W 19 24 10 13 1012.7 - 0.0
22/08:00pm 4.5 -2.0 2.5 87 0.9 W 26 37 14 20 1012.5 - 0.0
22/07:30pm 3.4 -1.2 1.4 87 0.8 W 15 24 8 13 1012.3 - 0.0
22/07:00pm 3.4 -0.9 0.8 83 1.1 WNW 13 20 7 11 1012.1 - 0.0
22/06:30pm 3.7 -0.6 0.7 81 1.2 W 13 22 7 12 1011.6 - 0.0
22/06:00pm 4.7 -2.4 1.2 78 1.5 W 28 37 15 20 1011.3 1011.2 0.0
22/05:30pm 4.6 -3.4 0.6 75 1.7 WSW 32 43 17 23 1010.7 - 0.0
22/05:00pm 5.7 -2.5 0.5 69 2.2 WSW 33 46 18 25 1010.5 - 0.0
22/04:30pm 6.9 -0.6 1.0 66 2.5 WSW 30 41 16 22 1010.4 - 0.0
22/04:00pm 8.1 0.7 2.1 66 2.7 WSW 30 39 16 21 1010.1 - 0.0
22/03:30pm 8.7 1.1 3.1 68 2.6 WSW 32 41 17 22 1010.1 - 0.0
22/03:17pm 9.2 0.7 3.4 67 2.7 SW 37 50 20 27 1010.0 - 0.0
22/03:00pm 9.1 0.4 2.2 62 3.1 W 37 46 20 25 1009.8 1009.6 0.0
22/02:30pm 9.4 1.7 2.5 62 3.1 W 32 44 17 24 1009.5 - 0.0
22/02:00pm 9.3 2.6 3.9 69 2.5 WSW 28 41 15 22 1009.4 - 0.0
22/01:30pm 10.5 2.6 2.4 57 3.7 W 33 44 18 24 1009.1 - 0.0
22/01:14pm 10.7 3.0 2.5 57 3.7 W 32 50 17 27 1009.1 - 0.0
22/01:00pm 10.0 2.5 3.5 64 3.0 W 32 43 17 23 1008.9 - 0.0
22/12:30pm 10.8 4.1 3.6 61 3.4 W 28 46 15 25 1009.1 - 0.0
22/12:29pm 11.2 4.5 3.7 60 3.5 W 28 46 15 25 1009.1 - 0.0
22/12:00pm 11.4 4.3 5.7 68 2.8 W 32 44 17 24 1008.9 1008.7 0.0
22/11:49am 12.3 6.3 7.2 71 2.6 W 28 46 15 25 1009.0 - 0.0
22/11:30am 10.2 2.8 5.0 70 2.5 W 33 46 18 25 1009.0 - 0.0
22/11:00am 10.5 3.4 5.3 70 2.5 W 32 48 17 26 1008.3 - 0.0
22/10:30am 9.6 2.1 4.2 69 2.5 WNW 33 52 18 28 1008.2 - 0.0
22/10:23am 9.4 1.8 4.0 69 2.5 WNW 33 52 18 28 1008.2 - 0.0
22/10:00am 8.7 1.6 5.6 81 1.5 WNW 32 46 17 25 1008.1 - 0.0
22/09:48am 8.4 1.8 5.9 84 1.2 WNW 30 48 16 26 1008.2 - 0.0
22/09:30am 8.6 2.8 6.2 85 1.2 WNW 26 41 14 22 1008.2 - 0.0
22/09:00am 8.4 1.8 6.2 86 1.1 WNW 30 41 16 22 1008.2 1008.0 10.4
22/08:30am 8.4 2.3 6.4 87 1.0 WNW 28 43 15 23 1008.0 - 10.4
22/08:00am 8.4 2.6 6.2 86 1.1 WNW 26 39 14 21 1007.6 - 10.4
22/07:30am 8.5 3.4 6.1 85 1.2 WNW 22 33 12 18 1007.5 - 10.4
22/07:00am 8.5 3.5 6.6 88 0.9 WNW 22 33 12 18 1007.1 - 10.4
22/06:30am 8.8 4.3 7.1 89 0.8 WNW 20 33 11 18 1006.9 - 10.4
22/06:00am 9.1 3.6 7.5 90 0.8 WNW 26 41 14 22 1007.0 1006.7 10.4
22/05:30am 9.4 4.7 7.8 90 0.8 WNW 22 39 12 21 1006.9 - 10.4
22/05:00am 9.5 4.4 7.8 89 0.9 NW 24 41 13 22 1006.8 - 10.4

Other Formats:

Comma delimited format used in spreadsheet applications
http://www.bom.gov.au/fwo/IDT60801/IDT60801.95959.axf

JavaScript Object Notation format (JSON) in row-major order
http://www.bom.gov.au/fwo/IDT60801/IDT60801.95959.json